Terminal Aerodrome Forecast
Issued by NWS Jackson, MS

Home | Current Version | Previous Version | Text Only | Print | Product List | Glossary On
Versions: 1 2 3 4 5 6 7 8 9 10 11 12 13
086
FTUS44 KJAN 032320
TAFMEI
TAF
KMEI 032320Z 0400/0424 05010KT P6SM -RA BKN060 BKN110
     FM041000 08010KT 4SM RA BR OVC008=

USA.gov is the U.S. government's official web portal to all federal, state and local government web resources and services.